sensor_id;sensor_type;location;lat;lon;timestamp;pressure;altitude;pressure_sealevel;temperature;humidity
2397;BME280;1209;48.410;9.054;2023-03-01T00:01:35;96843.94;;;-1.37;100.00
2397;BME280;1209;48.410;9.054;2023-03-01T00:04:00;96848.41;;;-1.40;100.00
2397;BME280;1209;48.410;9.054;2023-03-01T00:06:26;96845.50;;;-1.50;100.00
2397;BME280;1209;48.410;9.054;2023-03-01T00:08:52;96844.75;;;-1.52;100.00
2397;BME280;1209;48.410;9.054;2023-03-01T00:11:26;96853.28;;;-1.51;100.00
2397;BME280;1209;48.410;9.054;2023-03-01T00:13:55;96851.56;;;-1.67;100.00
2397;BME280;1209;48.410;9.054;2023-03-01T00:16:26;96850.00;;;-1.69;100.00
2397;BME280;1209;48.410;9.054;2023-03-01T00:18:54;96847.94;;;-1.63;100.00
2397;BME280;1209;48.410;9.054;2023-03-01T00:21:20;96833.31;;;-1.61;100.00
2397;BME280;1209;48.410;9.054;2023-03-01T00:23:47;96837.09;;;-1.52;100.00
2397;BME280;1209;48.410;9.054;2023-03-01T00:26:15;96839.88;;;-1.86;100.00
2397;BME280;1209;48.410;9.054;2023-03-01T00:28:41;96833.09;;;-1.72;100.00
2397;BME280;1209;48.410;9.054;2023-03-01T00:31:13;96833.47;;;-1.64;100.00
2397;BME280;1209;48.410;9.054;2023-03-01T00:33:39;96831.00;;;-1.65;100.00
2397;BME280;1209;48.410;9.054;2023-03-01T00:36:07;96836.31;;;-1.68;100.00
2397;BME280;1209;48.410;9.054;2023-03-01T00:38:37;96832.84;;;-1.67;100.00
2397;BME280;1209;48.410;9.054;2023-03-01T00:41:04;96833.00;;;-1.70;100.00
2397;BME280;1209;48.410;9.054;2023-03-01T00:43:30;96829.31;;;-1.80;100.00
2397;BME280;1209;48.410;9.054;2023-03-01T00:45:55;96838.38;;;-1.91;100.00
2397;BME280;1209;48.410;9.054;2023-03-01T00:48:21;96835.09;;;-2.24;100.00
2397;BME280;1209;48.410;9.054;2023-03-01T00:50:46;96828.66;;;-2.00;100.00
2397;BME280;1209;48.410;9.054;2023-03-01T00:53:11;96830.41;;;-1.84;100.00
2397;BME280;1209;48.410;9.054;2023-03-01T00:55:37;96826.09;;;-1.84;100.00
2397;BME280;1209;48.410;9.054;2023-03-01T00:58:02;96816.56;;;-1.66;100.00
2397;BME280;1209;48.410;9.054;2023-03-01T01:00:27;96819.78;;;-1.63;100.00
2397;BME280;1209;48.410;9.054;2023-03-01T01:02:53;96815.53;;;-1.94;100.00
2397;BME280;1209;48.410;9.054;2023-03-01T01:05:19;96815.28;;;-1.89;100.00
2397;BME280;1209;48.410;9.054;2023-03-01T01:07:46;96815.53;;;-2.09;100.00
2397;BME280;1209;48.410;9.054;2023-03-01T01:10:11;96813.06;;;-2.11;100.00
2397;BME280;1209;48.410;9.054;2023-03-01T01:12:42;96813.66;;;-2.22;100.00
2397;BME280;1209;48.410;9.054;2023-03-01T01:15:08;96813.38;;;-2.01;100.00
2397;BME280;1209;48.410;9.054;2023-03-01T01:17:33;96805.44;;;-1.97;100.00
2397;BME280;1209;48.410;9.054;2023-03-01T01:19:58;96803.22;;;-2.03;100.00
2397;BME280;1209;48.410;9.054;2023-03-01T01:22:23;96792.56;;;-1.95;100.00
2397;BME280;1209;48.410;9.054;2023-03-01T01:24:49;96796.56;;;-2.05;100.00
2397;BME280;1209;48.410;9.054;2023-03-01T01:27:14;96797.13;;;-2.00;100.00
2397;BME280;1209;48.410;9.054;2023-03-01T01:29:39;96798.19;;;-2.04;100.00
2397;BME280;1209;48.410;9.054;2023-03-01T01:32:07;96794.59;;;-2.16;100.00
2397;BME280;1209;48.410;9.054;2023-03-01T01:34:32;96788.41;;;-2.12;100.00
2397;BME280;1209;48.410;9.054;2023-03-01T01:36:57;96786.72;;;-1.97;100.00
2397;BME280;1209;48.410;9.054;2023-03-01T01:39:27;96790.44;;;-2.03;100.00
2397;BME280;1209;48.410;9.054;2023-03-01T01:41:53;96780.78;;;-1.98;100.00
2397;BME280;1209;48.410;9.054;2023-03-01T01:44:26;96789.25;;;-2.27;100.00
2397;BME280;1209;48.410;9.054;2023-03-01T01:47:06;96797.41;;;-2.20;100.00
2397;BME280;1209;48.410;9.054;2023-03-01T01:49:38;96793.84;;;-2.18;100.00
2397;BME280;1209;48.410;9.054;2023-03-01T01:52:27;96789.16;;;-2.26;100.00
2397;BME280;1209;48.410;9.054;2023-03-01T01:57:34;96785.06;;;-1.98;100.00
2397;BME280;1209;48.410;9.054;2023-03-01T02:00:06;96784.16;;;-1.81;100.00
2397;BME280;1209;48.410;9.054;2023-03-01T02:02:32;96784.16;;;-1.97;100.00
2397;BME280;1209;48.410;9.054;2023-03-01T02:06:07;96781.16;;;-1.74;100.00
2397;BME280;1209;48.410;9.054;2023-03-01T02:08:09;96779.00;;;-1.66;100.00
2397;BME280;1209;48.410;9.054;2023-03-01T02:10:37;96770.09;;;-1.74;100.00
2397;BME280;1209;48.410;9.054;2023-03-01T02:13:03;96772.47;;;-1.71;100.00
2397;BME280;1209;48.410;9.054;2023-03-01T02:15:32;96767.66;;;-1.62;100.00
2397;BME280;1209;48.410;9.054;2023-03-01T02:17:58;96766.88;;;-1.78;100.00
2397;BME280;1209;48.410;9.054;2023-03-01T02:22:53;96764.50;;;-1.97;100.00
2397;BME280;1209;48.410;9.054;2023-03-01T02:26:09;96748.25;;;-1.96;100.00
2397;BME280;1209;48.410;9.054;2023-03-01T02:30:44;96748.50;;;-1.84;100.00
2397;BME280;1209;48.410;9.054;2023-03-01T02:33:30;96746.50;;;-1.79;100.00
2397;BME280;1209;48.410;9.054;2023-03-01T02:35:59;96734.25;;;-1.74;100.00
2397;BME280;1209;48.410;9.054;2023-03-01T02:38:25;96747.88;;;-1.74;100.00
2397;BME280;1209;48.410;9.054;2023-03-01T02:40:51;96738.41;;;-1.58;100.00
2397;BME280;1209;48.410;9.054;2023-03-01T02:43:19;96735.63;;;-1.39;100.00
2397;BME280;1209;48.410;9.054;2023-03-01T02:45:50;96723.50;;;-1.65;100.00
2397;BME280;1209;48.410;9.054;2023-03-01T02:48:17;96730.81;;;-1.59;100.00
2397;BME280;1209;48.410;9.054;2023-03-01T02:51:06;96730.59;;;-1.40;100.00
2397;BME280;1209;48.410;9.054;2023-03-01T02:53:41;96731.06;;;-1.34;100.00
2397;BME280;1209;48.410;9.054;2023-03-01T02:56:09;96725.84;;;-1.32;100.00
2397;BME280;1209;48.410;9.054;2023-03-01T02:58:39;96724.97;;;-1.47;100.00
2397;BME280;1209;48.410;9.054;2023-03-01T03:01:13;96720.16;;;-1.37;100.00
2397;BME280;1209;48.410;9.054;2023-03-01T03:03:40;96718.53;;;-1.38;100.00
2397;BME280;1209;48.410;9.054;2023-03-01T03:06:06;96715.41;;;-1.29;100.00
2397;BME280;1209;48.410;9.054;2023-03-01T03:08:32;96710.25;;;-1.43;100.00
2397;BME280;1209;48.410;9.054;2023-03-01T03:10:57;96711.13;;;-1.29;100.00
2397;BME280;1209;48.410;9.054;2023-03-01T03:13:22;96705.72;;;-1.24;100.00
2397;BME280;1209;48.410;9.054;2023-03-01T03:15:54;96714.94;;;-1.21;100.00
2397;BME280;1209;48.410;9.054;2023-03-01T03:18:19;96711.66;;;-1.38;100.00
2397;BME280;1209;48.410;9.054;2023-03-01T03:20:45;96708.66;;;-1.30;100.00
2397;BME280;1209;48.410;9.054;2023-03-01T03:23:11;96704.63;;;-1.34;100.00
2397;BME280;1209;48.410;9.054;2023-03-01T03:25:37;96700.03;;;-1.29;100.00
2397;BME280;1209;48.410;9.054;2023-03-01T03:28:03;96698.72;;;-1.50;100.00
2397;BME280;1209;48.410;9.054;2023-03-01T03:30:35;96698.47;;;-1.46;100.00
2397;BME280;1209;48.410;9.054;2023-03-01T03:33:00;96691.97;;;-1.51;100.00
2397;BME280;1209;48.410;9.054;2023-03-01T03:35:29;96686.03;;;-1.52;100.00
2397;BME280;1209;48.410;9.054;2023-03-01T03:37:59;96686.94;;;-1.53;100.00
2397;BME280;1209;48.410;9.054;2023-03-01T03:40:37;96678.44;;;-1.53;100.00
2397;BME280;1209;48.410;9.054;2023-03-01T03:43:11;96690.13;;;-1.49;100.00
2397;BME280;1209;48.410;9.054;2023-03-01T03:45:37;96682.72;;;-1.54;100.00
2397;BME280;1209;48.410;9.054;2023-03-01T03:48:05;96680.91;;;-1.52;100.00
2397;BME280;1209;48.410;9.054;2023-03-01T03:50:32;96683.47;;;-1.52;100.00
2397;BME280;1209;48.410;9.054;2023-03-01T03:52:57;96684.47;;;-1.54;100.00
2397;BME280;1209;48.410;9.054;2023-03-01T03:55:22;96689.59;;;-1.54;100.00
2397;BME280;1209;48.410;9.054;2023-03-01T03:57:48;96678.78;;;-1.60;100.00
2397;BME280;1209;48.410;9.054;2023-03-01T04:00:21;96681.09;;;-1.55;100.00
2397;BME280;1209;48.410;9.054;2023-03-01T04:02:49;96679.06;;;-1.50;100.00
2397;BME280;1209;48.410;9.054;2023-03-01T04:05:17;96679.25;;;-1.53;100.00
2397;BME280;1209;48.410;9.054;2023-03-01T04:07:43;96678.59;;;-1.56;100.00
2397;BME280;1209;48.410;9.054;2023-03-01T04:10:11;96681.72;;;-1.51;100.00
2397;BME280;1209;48.410;9.054;2023-03-01T04:12:37;96678.34;;;-1.52;100.00
2397;BME280;1209;48.410;9.054;2023-03-01T04:15:04;96677.50;;;-1.52;100.00
2397;BME280;1209;48.410;9.054;2023-03-01T04:17:38;96677.88;;;-1.44;100.00
2397;BME280;1209;48.410;9.054;2023-03-01T04:20:05;96677.44;;;-1.51;100.00
2397;BME280;1209;48.410;9.054;2023-03-01T04:22:30;96676.59;;;-1.51;100.00
2397;BME280;1209;48.410;9.054;2023-03-01T04:24:57;96684.19;;;-1.50;100.00
2397;BME280;1209;48.410;9.054;2023-03-01T04:27:22;96683.50;;;-1.38;100.00
2397;BME280;1209;48.410;9.054;2023-03-01T04:29:47;96682.56;;;-1.37;100.00
2397;BME280;1209;48.410;9.054;2023-03-01T04:32:12;96678.38;;;-1.38;100.00
2397;BME280;1209;48.410;9.054;2023-03-01T04:34:41;96673.88;;;-1.34;100.00
2397;BME280;1209;48.410;9.054;2023-03-01T04:37:06;96675.25;;;-1.29;100.00
2397;BME280;1209;48.410;9.054;2023-03-01T04:39:31;96664.47;;;-1.34;100.00
2397;BME280;1209;48.410;9.054;2023-03-01T04:41:57;96664.75;;;-1.38;100.00
2397;BME280;1209;48.410;9.054;2023-03-01T04:44:22;96660.44;;;-1.38;100.00
2397;BME280;1209;48.410;9.054;2023-03-01T04:46:49;96661.16;;;-1.36;100.00
2397;BME280;1209;48.410;9.054;2023-03-01T04:49:14;96657.50;;;-1.32;100.00
2397;BME280;1209;48.410;9.054;2023-03-01T04:51:41;96655.03;;;-1.19;100.00
2397;BME280;1209;48.410;9.054;2023-03-01T04:54:06;96659.41;;;-1.07;100.00
2397;BME280;1209;48.410;9.054;2023-03-01T04:56:34;96655.66;;;-1.15;100.00
2397;BME280;1209;48.410;9.054;2023-03-01T04:58:59;96653.00;;;-1.14;100.00
2397;BME280;1209;48.410;9.054;2023-03-01T05:01:25;96658.59;;;-1.21;100.00
2397;BME280;1209;48.410;9.054;2023-03-01T05:03:51;96650.81;;;-1.20;100.00
2397;BME280;1209;48.410;9.054;2023-03-01T05:06:18;96649.63;;;-1.14;100.00
2397;BME280;1209;48.410;9.054;2023-03-01T05:08:43;96649.91;;;-1.19;100.00
2397;BME280;1209;48.410;9.054;2023-03-01T05:11:10;96653.38;;;-1.20;100.00
2397;BME280;1209;48.410;9.054;2023-03-01T05:13:37;96656.38;;;-1.13;100.00
2397;BME280;1209;48.410;9.054;2023-03-01T05:16:04;96657.94;;;-1.11;100.00
2397;BME280;1209;48.410;9.054;2023-03-01T05:18:31;96650.34;;;-1.12;100.00
2397;BME280;1209;48.410;9.054;2023-03-01T05:21:11;96659.13;;;-1.16;100.00
2397;BME280;1209;48.410;9.054;2023-03-01T05:23:37;96656.03;;;-1.21;100.00
2397;BME280;1209;48.410;9.054;2023-03-01T05:26:04;96653.19;;;-1.17;100.00
2397;BME280;1209;48.410;9.054;2023-03-01T05:28:31;96650.63;;;-1.17;100.00
2397;BME280;1209;48.410;9.054;2023-03-01T05:30:57;96654.94;;;-1.17;100.00
2397;BME280;1209;48.410;9.054;2023-03-01T05:33:24;96650.63;;;-1.17;100.00
2397;BME280;1209;48.410;9.054;2023-03-01T05:35:50;96656.66;;;-1.18;100.00
2397;BME280;1209;48.410;9.054;2023-03-01T05:38:17;96657.31;;;-1.14;100.00
2397;BME280;1209;48.410;9.054;2023-03-01T05:40:43;96654.66;;;-1.13;100.00
2397;BME280;1209;48.410;9.054;2023-03-01T05:43:10;96655.31;;;-1.23;100.00
2397;BME280;1209;48.410;9.054;2023-03-01T05:45:37;96648.97;;;-1.18;100.00
2397;BME280;1209;48.410;9.054;2023-03-01T05:48:04;96652.66;;;-1.22;100.00
2397;BME280;1209;48.410;9.054;2023-03-01T05:50:33;96648.44;;;-1.23;100.00
2397;BME280;1209;48.410;9.054;2023-03-01T05:53:04;96650.09;;;-1.22;100.00
2397;BME280;1209;48.410;9.054;2023-03-01T05:55:34;96650.19;;;-1.23;100.00
2397;BME280;1209;48.410;9.054;2023-03-01T05:58:00;96648.34;;;-1.21;100.00
2397;BME280;1209;48.410;9.054;2023-03-01T06:00:26;96641.03;;;-1.13;100.00
2397;BME280;1209;48.410;9.054;2023-03-01T06:02:53;96647.06;;;-1.14;100.00
2397;BME280;1209;48.410;9.054;2023-03-01T06:05:19;96641.84;;;-1.13;100.00
2397;BME280;1209;48.410;9.054;2023-03-01T06:07:44;96649.81;;;-1.17;100.00
2397;BME280;1209;48.410;9.054;2023-03-01T06:10:10;96653.38;;;-1.20;100.00
2397;BME280;1209;48.410;9.054;2023-03-01T06:12:38;96650.72;;;-1.18;100.00
2397;BME280;1209;48.410;9.054;2023-03-01T06:15:04;96648.16;;;-1.18;100.00
2397;BME280;1209;48.410;9.054;2023-03-01T06:17:34;96650.44;;;-1.14;100.00
2397;BME280;1209;48.410;9.054;2023-03-01T06:20:03;96650.34;;;-1.12;100.00
2397;BME280;1209;48.410;9.054;2023-03-01T06:22:29;96651.25;;;-1.13;100.00
2397;BME280;1209;48.410;9.054;2023-03-01T06:24:54;96653.72;;;-1.12;100.00
2397;BME280;1209;48.410;9.054;2023-03-01T06:27:19;96653.81;;;-1.13;100.00
2397;BME280;1209;48.410;9.054;2023-03-01T06:29:44;96646.22;;;-1.15;100.00
2397;BME280;1209;48.410;9.054;2023-03-01T06:32:10;96648.50;;;-1.10;100.00
2397;BME280;1209;48.410;9.054;2023-03-01T06:34:35;96643.09;;;-1.06;100.00
2397;BME280;1209;48.410;9.054;2023-03-01T06:37:00;96638.16;;;-1.09;100.00
2397;BME280;1209;48.410;9.054;2023-03-01T06:39:30;96644.66;;;-1.03;100.00
2397;BME280;1209;48.410;9.054;2023-03-01T06:41:56;96650.50;;;-1.01;100.00
2397;BME280;1209;48.410;9.054;2023-03-01T06:44:21;96642.81;;;-1.01;100.00
2397;BME280;1209;48.410;9.054;2023-03-01T06:46:46;96641.47;;;-1.07;100.00
2397;BME280;1209;48.410;9.054;2023-03-01T06:49:12;96649.69;;;-1.02;100.00
2397;BME280;1209;48.410;9.054;2023-03-01T06:51:37;96641.00;;;-0.99;100.00
2397;BME280;1209;48.410;9.054;2023-03-01T06:54:04;96643.00;;;-1.04;100.00
2397;BME280;1209;48.410;9.054;2023-03-01T06:56:30;96636.88;;;-1.02;100.00
2397;BME280;1209;48.410;9.054;2023-03-01T06:58:56;96639.88;;;-0.95;100.00
2397;BME280;1209;48.410;9.054;2023-03-01T07:01:21;96634.13;;;-0.84;100.00
2397;BME280;1209;48.410;9.054;2023-03-01T07:03:46;96631.25;;;-0.80;100.00
2397;BME280;1209;48.410;9.054;2023-03-01T07:06:12;96633.63;;;-0.77;100.00
2397;BME280;1209;48.410;9.054;2023-03-01T07:08:37;96623.19;;;-0.74;100.00
2397;BME280;1209;48.410;9.054;2023-03-01T07:11:02;96629.66;;;-0.68;100.00
2397;BME280;1209;48.410;9.054;2023-03-01T07:13:29;96624.09;;;-0.75;100.00
2397;BME280;1209;48.410;9.054;2023-03-01T07:15:54;96624.81;;;-0.73;100.00
2397;BME280;1209;48.410;9.054;2023-03-01T07:18:19;96618.50;;;-0.67;100.00
2397;BME280;1209;48.410;9.054;2023-03-01T07:20:45;96618.19;;;-0.63;100.00
2397;BME280;1209;48.410;9.054;2023-03-01T07:23:10;96616.97;;;-0.57;100.00
2397;BME280;1209;48.410;9.054;2023-03-01T07:25:35;96620.56;;;-0.59;100.00
2397;BME280;1209;48.410;9.054;2023-03-01T07:28:01;96609.28;;;-0.57;100.00
2397;BME280;1209;48.410;9.054;2023-03-01T07:30:26;96616.06;;;-0.56;100.00
2397;BME280;1209;48.410;9.054;2023-03-01T07:32:54;96614.72;;;-0.61;100.00
2397;BME280;1209;48.410;9.054;2023-03-01T07:35:20;96615.34;;;-0.58;100.00
2397;BME280;1209;48.410;9.054;2023-03-01T07:37:46;96617.28;;;-0.61;100.00
2397;BME280;1209;48.410;9.054;2023-03-01T07:40:12;96620.56;;;-0.59;100.00
2397;BME280;1209;48.410;9.054;2023-03-01T07:42:37;96622.44;;;-0.49;100.00
2397;BME280;1209;48.410;9.054;2023-03-01T07:45:04;96611.53;;;-0.38;100.00
2397;BME280;1209;48.410;9.054;2023-03-01T07:47:30;96608.38;;;-0.56;100.00
2397;BME280;1209;48.410;9.054;2023-03-01T07:49:55;96605.81;;;-0.56;100.00
2397;BME280;1209;48.410;9.054;2023-03-01T07:52:21;96611.66;;;-0.54;100.00
2397;BME280;1209;48.410;9.054;2023-03-01T07:54:46;96603.41;;;-0.45;100.00
2397;BME280;1209;48.410;9.054;2023-03-01T07:57:11;96603.09;;;-0.40;100.00
2397;BME280;1209;48.410;9.054;2023-03-01T07:59:37;96602.19;;;-0.39;100.00
2397;BME280;1209;48.410;9.054;2023-03-01T08:02:02;96600.56;;;-0.27;100.00
2397;BME280;1209;48.410;9.054;2023-03-01T08:04:28;96592.56;;;-0.23;100.00
2397;BME280;1209;48.410;9.054;2023-03-01T08:06:54;96595.31;;;-0.26;100.00
2397;BME280;1209;48.410;9.054;2023-03-01T08:09:20;96591.53;;;-0.20;100.00
2397;BME280;1209;48.410;9.054;2023-03-01T08:11:46;96590.50;;;-0.18;100.00
2397;BME280;1209;48.410;9.054;2023-03-01T08:14:11;96587.53;;;-0.24;100.00
2397;BME280;1209;48.410;9.054;2023-03-01T08:16:37;96588.66;;;-0.16;100.00
2397;BME280;1209;48.410;9.054;2023-03-01T08:19:10;96594.94;;;-0.07;100.00
2397;BME280;1209;48.410;9.054;2023-03-01T08:21:36;96593.91;;;-0.17;100.00
2397;BME280;1209;48.410;9.054;2023-03-01T08:24:02;96588.25;;;-0.10;100.00
2397;BME280;1209;48.410;9.054;2023-03-01T08:26:28;96590.22;;;-0.01;100.00
2397;BME280;1209;48.410;9.054;2023-03-01T08:28:53;96589.31;;;0.13;100.00
2397;BME280;1209;48.410;9.054;2023-03-01T08:31:20;96593.22;;;0.19;100.00
2397;BME280;1209;48.410;9.054;2023-03-01T08:33:47;96583.97;;;0.04;100.00
2397;BME280;1209;48.410;9.054;2023-03-01T08:36:16;96589.31;;;0.13;100.00
2397;BME280;1209;48.410;9.054;2023-03-01T08:38:42;96589.31;;;0.26;100.00
2397;BME280;1209;48.410;9.054;2023-03-01T08:41:07;96575.94;;;0.34;100.00
2397;BME280;1209;48.410;9.054;2023-03-01T08:43:32;96583.84;;;0.43;100.00
2397;BME280;1209;48.410;9.054;2023-03-01T08:45:58;96585.59;;;0.43;100.00
2397;BME280;1209;48.410;9.054;2023-03-01T08:48:23;96574.91;;;0.61;100.00
2397;BME280;1209;48.410;9.054;2023-03-01T08:50:48;96574.97;;;0.73;100.00
2397;BME280;1209;48.410;9.054;2023-03-01T08:53:14;96565.75;;;0.94;100.00
2397;BME280;1209;48.410;9.054;2023-03-01T08:55:39;96568.47;;;1.16;100.00
2397;BME280;1209;48.410;9.054;2023-03-01T08:58:05;96559.50;;;1.22;100.00
2397;BME280;1209;48.410;9.054;2023-03-01T09:00:30;96562.19;;;1.20;100.00
2397;BME280;1209;48.410;9.054;2023-03-01T09:02:55;96566.66;;;1.53;100.00
2397;BME280;1209;48.410;9.054;2023-03-01T09:05:21;96553.66;;;1.44;100.00
2397;BME280;1209;48.410;9.054;2023-03-01T09:07:46;96552.50;;;1.24;100.00
2397;BME280;1209;48.410;9.054;2023-03-01T09:10:11;96546.06;;;1.30;100.00
2397;BME280;1209;48.410;9.054;2023-03-01T09:12:37;96548.28;;;1.47;100.00
2397;BME280;1209;48.410;9.054;2023-03-01T09:15:02;96544.22;;;1.55;100.00
2397;BME280;1209;48.410;9.054;2023-03-01T09:17:28;96542.78;;;1.51;100.00
2397;BME280;1209;48.410;9.054;2023-03-01T09:19:53;96546.09;;;1.65;100.00
2397;BME280;1209;48.410;9.054;2023-03-01T09:22:18;96550.06;;;1.57;100.00
2397;BME280;1209;48.410;9.054;2023-03-01T09:24:44;96541.22;;;1.84;100.00
2397;BME280;1209;48.410;9.054;2023-03-01T09:27:09;96537.34;;;1.78;100.00
2397;BME280;1209;48.410;9.054;2023-03-01T09:29:36;96546.50;;;1.82;100.00
2397;BME280;1209;48.410;9.054;2023-03-01T09:32:02;96538.41;;;1.87;100.00
2397;BME280;1209;48.410;9.054;2023-03-01T09:34:27;96533.44;;;1.97;100.00
2397;BME280;1209;48.410;9.054;2023-03-01T09:36:52;96540.94;;;2.22;100.00
2397;BME280;1209;48.410;9.054;2023-03-01T09:39:18;96542.09;;;2.29;100.00
2397;BME280;1209;48.410;9.054;2023-03-01T09:41:59;96537.09;;;2.39;100.00
2397;BME280;1209;48.410;9.054;2023-03-01T09:44:43;96543.06;;;2.39;100.00
2397;BME280;1209;48.410;9.054;2023-03-01T09:47:27;96542.94;;;2.30;100.00
2397;BME280;1209;48.410;9.054;2023-03-01T09:52:38;96536.50;;;2.58;100.00
2397;BME280;1209;48.410;9.054;2023-03-01T09:55:14;96537.88;;;2.73;100.00
2397;BME280;1209;48.410;9.054;2023-03-01T09:57:46;96530.13;;;2.95;100.00
2397;BME280;1209;48.410;9.054;2023-03-01T10:05:31;96526.13;;;2.80;100.00
2397;BME280;1209;48.410;9.054;2023-03-01T10:10:35;96513.31;;;3.65;100.00
2397;BME280;1209;48.410;9.054;2023-03-01T10:13:28;96507.97;;;4.29;100.00
2397;BME280;1209;48.410;9.054;2023-03-01T10:15:54;96507.47;;;4.45;99.48
2397;BME280;1209;48.410;9.054;2023-03-01T10:18:22;96509.22;;;4.74;98.20
2397;BME280;1209;48.410;9.054;2023-03-01T10:21:17;96505.47;;;4.58;95.66
2397;BME280;1209;48.410;9.054;2023-03-01T10:23:43;96509.66;;;4.39;95.97
2397;BME280;1209;48.410;9.054;2023-03-01T10:26:14;96514.59;;;4.52;97.84
2397;BME280;1209;48.410;9.054;2023-03-01T10:28:58;96501.41;;;4.65;98.61
2397;BME280;1209;48.410;9.054;2023-03-01T10:31:35;96503.97;;;4.55;94.83
2397;BME280;1209;48.410;9.054;2023-03-01T10:34:07;96506.50;;;4.36;96.33
2397;BME280;1209;48.410;9.054;2023-03-01T10:36:33;96504.09;;;4.54;96.49
2397;BME280;1209;48.410;9.054;2023-03-01T10:38:59;96502.22;;;4.25;96.32
2397;BME280;1209;48.410;9.054;2023-03-01T10:41:26;96489.81;;;4.50;96.61
2397;BME280;1209;48.410;9.054;2023-03-01T10:43:56;96480.31;;;4.69;94.06
2397;BME280;1209;48.410;9.054;2023-03-01T10:46:33;96483.13;;;5.16;93.46
2397;BME280;1209;48.410;9.054;2023-03-01T10:51:31;96484.50;;;5.20;89.75
2397;BME280;1209;48.410;9.054;2023-03-01T10:53:57;96484.19;;;5.91;89.72
2397;BME280;1209;48.410;9.054;2023-03-01T10:56:22;96469.34;;;6.57;88.37
2397;BME280;1209;48.410;9.054;2023-03-01T10:59:03;96474.56;;;6.20;84.35
2397;BME280;1209;48.410;9.054;2023-03-01T11:01:31;96462.97;;;6.24;86.74
2397;BME280;1209;48.410;9.054;2023-03-01T11:06:35;96452.97;;;6.29;83.77
2397;BME280;1209;48.410;9.054;2023-03-01T11:09:21;96456.38;;;6.57;83.47
2397;BME280;1209;48.410;9.054;2023-03-01T11:11:52;96448.78;;;6.46;82.91
2397;BME280;1209;48.410;9.054;2023-03-01T11:14:21;96443.75;;;6.45;84.65
2397;BME280;1209;48.410;9.054;2023-03-01T11:16:58;96436.72;;;6.55;81.10
2397;BME280;1209;48.410;9.054;2023-03-01T11:19:24;96439.38;;;6.90;80.93
2397;BME280;1209;48.410;9.054;2023-03-01T11:24:18;96443.69;;;6.82;80.47
2397;BME280;1209;48.410;9.054;2023-03-01T11:26:47;96434.34;;;6.89;76.76
2397;BME280;1209;48.410;9.054;2023-03-01T11:29:27;96433.44;;;6.62;81.20
2397;BME280;1209;48.410;9.054;2023-03-01T11:31:56;96437.91;;;6.60;78.17
2397;BME280;1209;48.410;9.054;2023-03-01T11:34:40;96431.50;;;6.82;79.74
2397;BME280;1209;48.410;9.054;2023-03-01T11:37:40;96425.50;;;7.00;79.42
2397;BME280;1209;48.410;9.054;2023-03-01T11:40:16;96412.06;;;7.04;77.90
2397;BME280;1209;48.410;9.054;2023-03-01T11:42:52;96409.72;;;7.29;78.02
2397;BME280;1209;48.410;9.054;2023-03-01T11:45:23;96400.84;;;7.39;75.96
2397;BME280;1209;48.410;9.054;2023-03-01T11:48:12;96408.66;;;7.39;79.30
2397;BME280;1209;48.410;9.054;2023-03-01T11:50:47;96396.06;;;7.26;79.98
2397;BME280;1209;48.410;9.054;2023-03-01T11:55:59;96389.78;;;7.37;77.71
2397;BME280;1209;48.410;9.054;2023-03-01T12:12:29;96373.84;;;7.32;77.59
2397;BME280;1209;48.410;9.054;2023-03-01T12:20:36;96358.38;;;7.05;76.63
2397;BME280;1209;48.410;9.054;2023-03-01T12:25:56;96347.41;;;7.37;77.36
2397;BME280;1209;48.410;9.054;2023-03-01T12:36:56;96326.28;;;7.57;78.70
2397;BME280;1209;48.410;9.054;2023-03-01T12:43:17;96310.53;;;7.59;76.82
2397;BME280;1209;48.410;9.054;2023-03-01T12:46:06;96304.44;;;7.76;76.94
2397;BME280;1209;48.410;9.054;2023-03-01T12:51:24;96293.28;;;7.92;77.72
2397;BME280;1209;48.410;9.054;2023-03-01T12:53:53;96287.91;;;7.85;73.77
2397;BME280;1209;48.410;9.054;2023-03-01T12:56:23;96291.75;;;8.07;74.94
2397;BME280;1209;48.410;9.054;2023-03-01T13:01:35;96284.53;;;7.93;74.06
2397;BME280;1209;48.410;9.054;2023-03-01T13:11:59;96272.72;;;8.15;73.69
2397;BME280;1209;48.410;9.054;2023-03-01T13:16:51;96269.81;;;8.18;73.53
2397;BME280;1209;48.410;9.054;2023-03-01T13:19:19;96268.78;;;8.03;75.31
2397;BME280;1209;48.410;9.054;2023-03-01T13:21:46;96264.94;;;8.23;77.19
2397;BME280;1209;48.410;9.054;2023-03-01T13:24:42;96260.75;;;8.38;74.73
2397;BME280;1209;48.410;9.054;2023-03-01T13:29:56;96259.75;;;8.23;72.26
2397;BME280;1209;48.410;9.054;2023-03-01T13:35:15;96251.38;;;7.95;75.92
2397;BME280;1209;48.410;9.054;2023-03-01T13:37:48;96252.19;;;8.04;77.07
2397;BME280;1209;48.410;9.054;2023-03-01T13:42:51;96247.91;;;7.78;75.61
2397;BME280;1209;48.410;9.054;2023-03-01T13:47:43;96260.47;;;7.91;76.46
2397;BME280;1209;48.410;9.054;2023-03-01T13:50:18;96263.56;;;7.95;76.84
2397;BME280;1209;48.410;9.054;2023-03-01T13:52:50;96256.22;;;7.82;76.03
2397;BME280;1209;48.410;9.054;2023-03-01T13:55:17;96247.31;;;7.93;78.34
2397;BME280;1209;48.410;9.054;2023-03-01T13:57:46;96248.13;;;7.93;75.62
2397;BME280;1209;48.410;9.054;2023-03-01T14:00:45;96243.28;;;8.06;78.38
2397;BME280;1209;48.410;9.054;2023-03-01T14:03:18;96252.69;;;7.99;77.25
2397;BME280;1209;48.410;9.054;2023-03-01T14:08:27;96256.06;;;7.92;79.88
2397;BME280;1209;48.410;9.054;2023-03-01T14:19:20;96258.63;;;7.75;76.80
2397;BME280;1209;48.410;9.054;2023-03-01T14:21:58;96263.66;;;7.77;78.38
2397;BME280;1209;48.410;9.054;2023-03-01T14:24:27;96268.91;;;7.85;79.32
2397;BME280;1209;48.410;9.054;2023-03-01T14:26:53;96267.75;;;7.87;79.85
2397;BME280;1209;48.410;9.054;2023-03-01T14:29:27;96265.63;;;7.83;76.21
2397;BME280;1209;48.410;9.054;2023-03-01T14:31:53;96262.22;;;7.82;78.37
2397;BME280;1209;48.410;9.054;2023-03-01T14:34:23;96265.47;;;7.76;78.67
2397;BME280;1209;48.410;9.054;2023-03-01T14:36:49;96265.66;;;7.49;79.43
2397;BME280;1209;48.410;9.054;2023-03-01T14:39:24;96259.28;;;7.77;79.36
2397;BME280;1209;48.410;9.054;2023-03-01T14:41:50;96263.66;;;7.77;78.23
2397;BME280;1209;48.410;9.054;2023-03-01T14:44:20;96258.28;;;7.70;79.63
2397;BME280;1209;48.410;9.054;2023-03-01T14:46:52;96266.72;;;7.64;80.04
2397;BME280;1209;48.410;9.054;2023-03-01T14:49:21;96267.03;;;7.61;79.46
2397;BME280;1209;48.410;9.054;2023-03-01T14:52:14;96264.63;;;7.68;79.60
2397;BME280;1209;48.410;9.054;2023-03-01T14:54:45;96258.94;;;7.72;78.41
2397;BME280;1209;48.410;9.054;2023-03-01T14:57:16;96265.34;;;7.52;79.01
2397;BME280;1209;48.410;9.054;2023-03-01T14:59:42;96263.81;;;7.67;80.98
2397;BME280;1209;48.410;9.054;2023-03-01T15:02:13;96259.97;;;7.96;78.58
2397;BME280;1209;48.410;9.054;2023-03-01T15:04:42;96263.69;;;7.85;79.02
2397;BME280;1209;48.410;9.054;2023-03-01T15:07:12;96259.13;;;7.79;77.55